createdAt,value
2018-03-31T00:01:17.308Z,99059
2018-03-31T00:03:44.902Z,99065
2018-03-31T00:06:13.247Z,99070
2018-03-31T00:08:42.503Z,99071
2018-03-31T00:11:10.027Z,99075
2018-03-31T00:13:38.342Z,99080
2018-03-31T00:16:05.855Z,99083
2018-03-31T00:18:34.136Z,99081
2018-03-31T00:21:02.407Z,99072
2018-03-31T00:23:30.680Z,99078
2018-03-31T00:25:59.140Z,99079
2018-03-31T00:28:26.601Z,99080
2018-03-31T00:30:54.076Z,99090
2018-03-31T00:33:22.317Z,99082
2018-03-31T00:35:49.814Z,99082
2018-03-31T00:38:18.057Z,99082
2018-03-31T00:40:45.663Z,99088
2018-03-31T00:43:13.918Z,99085
2018-03-31T00:45:41.362Z,99089
2018-03-31T00:48:08.811Z,99086
2018-03-31T00:50:36.305Z,99086
2018-03-31T00:53:03.937Z,99086
2018-03-31T00:55:31.403Z,99085
2018-03-31T00:57:59.632Z,99083
2018-03-31T01:00:27.112Z,99079
2018-03-31T01:02:54.705Z,99079
2018-03-31T01:05:23.130Z,99080
2018-03-31T01:07:50.586Z,99075
2018-03-31T01:10:18.045Z,99070
2018-03-31T01:12:45.523Z,99068
2018-03-31T01:15:13.298Z,99067
2018-03-31T01:17:41.717Z,99062
2018-03-31T01:20:09.166Z,99062
2018-03-31T01:22:37.403Z,99067
2018-03-31T01:25:04.889Z,99072
2018-03-31T01:27:33.133Z,99074
2018-03-31T01:30:00.678Z,99075
2018-03-31T01:32:28.163Z,99078
2018-03-31T01:34:56.741Z,99080
2018-03-31T01:37:24.326Z,99085
2018-03-31T01:39:52.536Z,99088
2018-03-31T01:42:20.311Z,99081
2018-03-31T01:44:47.782Z,99083
2018-03-31T01:47:15.227Z,99085
2018-03-31T01:49:42.897Z,99089
2018-03-31T01:52:10.328Z,99084
2018-03-31T01:54:37.786Z,99086
2018-03-31T01:57:06.891Z,99088
2018-03-31T01:59:34.368Z,99087
2018-03-31T02:02:02.142Z,99084
2018-03-31T02:04:29.601Z,99091
2018-03-31T02:06:57.084Z,99087
2018-03-31T02:09:25.292Z,99089
2018-03-31T02:11:52.786Z,99089
2018-03-31T02:14:20.249Z,99093
2018-03-31T02:16:47.717Z,99089
2018-03-31T02:19:15.971Z,99080
2018-03-31T02:21:43.440Z,99075
2018-03-31T02:24:10.898Z,99077
2018-03-31T02:26:38.454Z,99076
2018-03-31T02:29:05.982Z,99073
2018-03-31T02:31:33.408Z,99078
2018-03-31T02:34:00.927Z,99075
2018-03-31T02:36:29.870Z,99072
2018-03-31T02:38:57.349Z,99078
2018-03-31T02:41:24.957Z,99071
2018-03-31T02:43:52.692Z,99073
2018-03-31T02:46:20.137Z,99072
2018-03-31T02:48:47.602Z,99071
2018-03-31T02:51:15.060Z,99073
2018-03-31T02:53:42.626Z,99074
2018-03-31T02:56:10.089Z,99077
2018-03-31T02:58:37.524Z,99078
2018-03-31T03:01:05.025Z,99087
2018-03-31T03:03:33.551Z,99081
2018-03-31T03:06:01.069Z,99083
2018-03-31T03:08:29.338Z,99083
2018-03-31T03:10:57.546Z,99084
2018-03-31T03:13:25.017Z,99085
2018-03-31T03:15:52.567Z,99087
2018-03-31T03:18:20.244Z,99086
2018-03-31T03:20:47.688Z,99091
2018-03-31T03:23:15.156Z,99092
2018-03-31T03:25:42.674Z,99084
2018-03-31T03:28:10.121Z,99092
2018-03-31T03:30:37.690Z,99094
2018-03-31T03:33:05.147Z,99100
2018-03-31T03:35:32.698Z,99105
2018-03-31T03:38:00.182Z,99110
2018-03-31T03:40:27.626Z,99107
2018-03-31T03:42:55.062Z,99106
2018-03-31T03:45:23.298Z,99113
2018-03-31T03:47:51.519Z,99116
2018-03-31T03:50:19.740Z,99125
2018-03-31T03:52:47.200Z,99122
2018-03-31T03:55:14.824Z,99125
2018-03-31T03:57:42.347Z,99129
2018-03-31T04:00:09.819Z,99140
2018-03-31T04:02:38.028Z,99139
2018-03-31T04:05:05.457Z,99136
2018-03-31T04:07:33.110Z,99145
2018-03-31T04:10:01.654Z,99146
2018-03-31T04:12:29.084Z,99140
2018-03-31T04:14:56.506Z,99141
2018-03-31T04:17:24.729Z,99142
2018-03-31T04:19:52.171Z,99150
2018-03-31T04:22:19.635Z,99151
2018-03-31T04:24:47.113Z,99160
2018-03-31T04:27:14.610Z,99152
2018-03-31T04:29:42.076Z,99157
2018-03-31T04:32:09.537Z,99155
2018-03-31T04:34:37.760Z,99151
2018-03-31T04:37:05.174Z,99150
2018-03-31T04:39:32.677Z,99150
2018-03-31T04:42:00.230Z,99147
2018-03-31T04:44:27.688Z,99142
2018-03-31T04:46:55.119Z,99143
2018-03-31T04:49:22.586Z,99136
2018-03-31T04:51:50.038Z,99127
2018-03-31T04:54:18.540Z,99130
2018-03-31T04:56:46.002Z,99129
2018-03-31T04:59:13.704Z,99131
2018-03-31T05:01:41.327Z,99132
2018-03-31T05:04:08.820Z,99129
2018-03-31T05:06:37.052Z,99133
2018-03-31T05:09:04.469Z,99140
2018-03-31T05:11:31.945Z,99145
2018-03-31T05:13:59.425Z,99143
2018-03-31T05:16:27.015Z,99145
2018-03-31T05:18:54.593Z,99148
2018-03-31T05:21:22.128Z,99152
2018-03-31T05:23:49.767Z,99154
2018-03-31T05:26:17.224Z,99157
2018-03-31T05:28:44.694Z,99158
2018-03-31T05:31:12.174Z,99161
2018-03-31T05:33:39.737Z,99166
2018-03-31T05:36:07.975Z,99170
2018-03-31T05:38:36.970Z,99166
2018-03-31T05:41:04.438Z,99166
2018-03-31T05:43:31.887Z,99156
2018-03-31T05:45:59.354Z,99165
2018-03-31T05:48:26.819Z,99163
2018-03-31T05:50:55.039Z,99166
2018-03-31T05:53:22.588Z,99165
2018-03-31T05:55:50.075Z,99162
2018-03-31T05:58:17.548Z,99162
2018-03-31T06:00:46.500Z,99164
2018-03-31T06:03:13.938Z,99162
2018-03-31T06:05:41.494Z,99165
2018-03-31T06:08:09.024Z,99163
2018-03-31T06:10:37.369Z,99165
2018-03-31T06:13:04.905Z,99163
2018-03-31T06:15:32.388Z,99157
2018-03-31T06:18:00.159Z,99156
2018-03-31T06:20:27.599Z,99160
2018-03-31T06:22:56.656Z,99160
2018-03-31T06:25:24.131Z,99163
2018-03-31T06:27:51.582Z,99156
2018-03-31T06:30:19.090Z,99164
2018-03-31T06:32:46.564Z,99160
2018-03-31T06:35:14.140Z,99163
2018-03-31T06:37:41.605Z,99160
2018-03-31T06:40:09.073Z,99162
2018-03-31T06:42:36.581Z,99170
2018-03-31T06:45:04.191Z,99177
2018-03-31T06:47:31.624Z,99178
2018-03-31T06:49:59.832Z,99184
2018-03-31T06:52:27.381Z,99180
2018-03-31T06:54:55.010Z,99185
2018-03-31T06:57:22.538Z,99188
2018-03-31T06:59:50.009Z,99191
2018-03-31T07:02:17.526Z,99191
2018-03-31T07:04:45.046Z,99195
2018-03-31T07:07:13.380Z,99197
2018-03-31T07:09:40.872Z,99199
2018-03-31T07:12:09.136Z,99193
2018-03-31T07:14:36.595Z,99195
2018-03-31T07:17:04.207Z,99198
2018-03-31T07:19:31.673Z,99202
2018-03-31T07:21:59.125Z,99197
2018-03-31T07:24:26.599Z,99195
2018-03-31T07:26:55.520Z,99197
2018-03-31T07:29:23.845Z,99198
2018-03-31T07:31:51.309Z,99193
2018-03-31T07:34:18.793Z,99189
2018-03-31T07:36:46.478Z,99188
2018-03-31T07:39:13.939Z,99189
2018-03-31T07:41:42.165Z,99195
2018-03-31T07:44:09.685Z,99193
2018-03-31T07:46:37.899Z,99193
2018-03-31T07:49:05.459Z,99188
2018-03-31T07:51:33.222Z,99189
2018-03-31T07:54:00.720Z,99193
2018-03-31T07:56:28.436Z,99195
2018-03-31T07:58:56.765Z,99187
2018-03-31T08:01:24.234Z,99185
2018-03-31T08:03:52.506Z,99181
2018-03-31T08:06:19.995Z,99183
2018-03-31T08:08:47.481Z,99177
2018-03-31T08:11:14.976Z,99175
2018-03-31T08:13:43.354Z,99177
2018-03-31T08:16:10.805Z,99179
2018-03-31T08:18:38.294Z,99179
2018-03-31T08:21:05.795Z,99177
2018-03-31T08:23:33.393Z,99171
2018-03-31T08:26:01.636Z,99175
2018-03-31T08:28:29.114Z,99172
2018-03-31T08:30:56.591Z,99183
2018-03-31T08:33:24.812Z,99182
2018-03-31T08:35:52.515Z,99183
2018-03-31T08:38:19.989Z,99185
2018-03-31T08:40:47.460Z,99185
2018-03-31T08:43:15.020Z,99185
2018-03-31T08:45:42.482Z,99184
2018-03-31T08:48:10.231Z,99184
2018-03-31T08:50:38.479Z,99183
2018-03-31T08:53:05.951Z,99185
2018-03-31T08:55:34.227Z,99188
2018-03-31T08:58:01.685Z,99183
2018-03-31T09:00:29.935Z,99181
2018-03-31T09:02:57.424Z,99177
2018-03-31T09:05:25.748Z,99185
2018-03-31T09:07:53.214Z,99182
2018-03-31T09:10:20.746Z,99189
2018-03-31T09:12:48.222Z,99185
2018-03-31T09:15:15.721Z,99186
2018-03-31T09:17:43.265Z,99188
2018-03-31T09:20:10.786Z,99190
2018-03-31T09:22:38.231Z,99192
2018-03-31T09:25:05.766Z,99195
2018-03-31T09:27:34.199Z,99190
2018-03-31T09:30:01.687Z,99188
2018-03-31T09:32:29.920Z,99187
2018-03-31T09:34:57.395Z,99188
2018-03-31T09:37:24.864Z,99186
2018-03-31T09:39:53.639Z,99190
2018-03-31T09:42:21.081Z,99191
2018-03-31T09:44:48.577Z,99189
2018-03-31T09:47:16.791Z,99190
2018-03-31T09:49:44.295Z,99189
2018-03-31T09:52:11.771Z,99191
2018-03-31T09:54:39.996Z,99194
2018-03-31T09:57:07.610Z,99194
2018-03-31T09:59:35.101Z,99195
2018-03-31T10:02:02.834Z,99198
2018-03-31T10:04:31.085Z,99189
2018-03-31T10:06:59.694Z,99187
2018-03-31T10:09:27.939Z,99190
2018-03-31T10:11:55.442Z,99185
2018-03-31T10:14:23.678Z,99184
2018-03-31T10:16:51.133Z,99195
2018-03-31T10:19:18.622Z,99189
2018-03-31T10:21:46.855Z,99198
2018-03-31T10:24:14.343Z,99192
2018-03-31T10:26:42.545Z,99179
2018-03-31T10:29:10.195Z,99177
2018-03-31T10:31:38.694Z,99176
2018-03-31T10:34:06.191Z,99178
2018-03-31T10:36:33.642Z,99178
2018-03-31T10:39:01.585Z,99179
2018-03-31T10:41:29.107Z,99171
2018-03-31T10:43:57.362Z,99184
2018-03-31T10:46:24.933Z,99182
2018-03-31T10:48:53.164Z,99181
2018-03-31T10:51:20.784Z,99181
2018-03-31T10:53:49.021Z,99186
2018-03-31T10:56:16.485Z,99192
2018-03-31T10:58:43.966Z,99187
2018-03-31T11:01:12.241Z,99188
2018-03-31T11:03:40.454Z,99184
2018-03-31T11:06:07.954Z,99185
2018-03-31T11:08:35.579Z,99190
2018-03-31T11:11:03.015Z,99188
2018-03-31T11:13:30.471Z,99192
2018-03-31T11:15:57.952Z,99193
2018-03-31T11:18:25.620Z,99189
2018-03-31T11:20:53.168Z,99191
2018-03-31T11:23:20.660Z,99191
2018-03-31T11:25:49.640Z,99187
2018-03-31T11:28:17.094Z,99190
2018-03-31T11:30:44.632Z,99186
2018-03-31T11:33:12.074Z,99181
2018-03-31T11:35:39.559Z,99184
2018-03-31T11:38:06.991Z,99179
2018-03-31T11:40:34.466Z,99182
2018-03-31T11:43:01.934Z,99182
2018-03-31T11:45:29.589Z,99187
2018-03-31T11:47:57.091Z,99188
2018-03-31T11:50:25.345Z,99188
2018-03-31T11:52:53.602Z,99180
2018-03-31T11:55:21.096Z,99184
2018-03-31T11:57:49.404Z,99185
2018-03-31T12:00:17.005Z,99184
2018-03-31T12:02:44.479Z,99181
2018-03-31T12:05:11.931Z,99179
2018-03-31T12:07:39.532Z,99182
2018-03-31T12:10:07.045Z,99180
2018-03-31T12:12:34.485Z,99182
2018-03-31T12:15:01.933Z,99180
2018-03-31T12:17:29.455Z,99180
2018-03-31T12:19:57.665Z,99177
2018-03-31T12:22:25.175Z,99175
2018-03-31T12:24:52.740Z,99169
2018-03-31T12:27:21.000Z,99168
2018-03-31T12:29:48.511Z,99164
2018-03-31T12:32:16.000Z,99161
2018-03-31T12:34:45.058Z,99162
2018-03-31T12:37:12.547Z,99165
2018-03-31T12:39:40.097Z,99163
2018-03-31T12:42:07.580Z,99159
2018-03-31T12:44:35.040Z,99160
2018-03-31T12:47:02.527Z,99162
2018-03-31T12:49:30.013Z,99162
2018-03-31T12:51:57.537Z,99162
2018-03-31T12:54:25.901Z,99153
2018-03-31T12:56:54.195Z,99154
2018-03-31T12:59:22.452Z,99151
2018-03-31T13:01:50.741Z,99154
2018-03-31T13:04:18.324Z,99150
2018-03-31T13:06:47.396Z,99148
2018-03-31T13:09:15.611Z,99148
2018-03-31T13:11:43.131Z,99154
2018-03-31T13:14:11.770Z,99149
2018-03-31T13:16:39.384Z,99148
2018-03-31T13:19:06.941Z,99141
2018-03-31T13:21:34.527Z,99144
2018-03-31T13:24:02.039Z,99147
2018-03-31T13:26:30.255Z,99152
2018-03-31T13:28:57.799Z,99151
2018-03-31T13:31:25.431Z,99155
2018-03-31T13:33:52.920Z,99151
2018-03-31T13:36:20.421Z,99154
2018-03-31T13:38:48.060Z,99156
2018-03-31T13:41:15.569Z,99150
2018-03-31T13:43:43.038Z,99150
2018-03-31T13:46:11.366Z,99148
2018-03-31T13:48:38.870Z,99150
2018-03-31T13:51:06.637Z,99148
2018-03-31T13:53:35.989Z,99148
2018-03-31T13:56:05.495Z,99143
2018-03-31T13:58:33.022Z,99148
2018-03-31T14:01:00.702Z,99152
2018-03-31T14:03:28.199Z,99149
2018-03-31T14:05:55.770Z,99143
2018-03-31T14:08:23.299Z,99141
2018-03-31T14:10:50.807Z,99139
2018-03-31T14:13:18.269Z,99145
2018-03-31T14:15:45.941Z,99147
2018-03-31T14:18:13.397Z,99148
2018-03-31T14:20:40.931Z,99150
2018-03-31T14:23:09.224Z,99153
2018-03-31T14:25:36.707Z,99157
2018-03-31T14:28:04.229Z,99151
2018-03-31T14:30:31.944Z,99154
2018-03-31T14:32:59.438Z,99161
2018-03-31T14:35:27.755Z,99172
2018-03-31T14:37:55.498Z,99186
2018-03-31T14:40:23.775Z,99185
2018-03-31T14:42:51.233Z,99181
2018-03-31T14:45:18.724Z,99173
2018-03-31T14:47:46.469Z,99165
2018-03-31T14:50:13.932Z,99165
2018-03-31T14:52:41.451Z,99166
2018-03-31T14:55:09.683Z,99158
2018-03-31T14:57:37.175Z,99164
2018-03-31T15:00:04.926Z,99158
2018-03-31T15:02:32.462Z,99162
2018-03-31T15:05:00.006Z,99167
2018-03-31T15:07:27.491Z,99169
2018-03-31T15:09:54.981Z,99159
2018-03-31T15:12:23.231Z,99156
2018-03-31T15:14:50.751Z,99148
2018-03-31T15:17:18.261Z,99147
2018-03-31T15:19:46.925Z,99142
2018-03-31T15:22:14.386Z,99128
2018-03-31T15:24:42.633Z,99121
2018-03-31T15:27:11.739Z,99120
2018-03-31T15:29:39.447Z,99122
2018-03-31T15:32:07.211Z,99128
2018-03-31T15:34:35.463Z,99139
2018-03-31T15:37:02.934Z,99137
2018-03-31T15:39:31.951Z,99145
2018-03-31T15:42:00.231Z,99146
2018-03-31T15:44:27.792Z,99151
2018-03-31T15:46:55.523Z,99144
2018-03-31T15:49:22.996Z,99144
2018-03-31T15:51:51.286Z,99149
2018-03-31T15:54:18.752Z,99149
2018-03-31T15:56:46.343Z,99151
2018-03-31T15:59:13.813Z,99154
2018-03-31T16:01:41.321Z,99156
2018-03-31T16:04:08.818Z,99156
2018-03-31T16:06:36.700Z,99149
2018-03-31T16:09:05.139Z,99150
2018-03-31T16:11:32.806Z,99148
2018-03-31T16:14:00.441Z,99147
2018-03-31T16:16:28.663Z,99130
2018-03-31T16:18:56.216Z,99132
2018-03-31T16:21:23.872Z,99130
2018-03-31T16:23:51.596Z,99119
2018-03-31T16:26:19.905Z,99117
2018-03-31T16:28:47.471Z,99115
2018-03-31T16:31:14.968Z,99115
2018-03-31T16:33:42.513Z,99111
2018-03-31T16:36:10.027Z,99120
2018-03-31T16:38:37.541Z,99130
2018-03-31T16:41:05.096Z,99138
2018-03-31T16:43:33.532Z,99137
2018-03-31T16:46:01.065Z,99145
2018-03-31T16:48:29.404Z,99148
2018-03-31T16:50:56.982Z,99149
2018-03-31T16:53:24.579Z,99152
2018-03-31T16:55:54.024Z,99153
2018-03-31T16:58:21.513Z,99156
2018-03-31T17:00:49.735Z,99157
2018-03-31T17:03:17.269Z,99158
2018-03-31T17:05:44.719Z,99161
2018-03-31T17:08:13.041Z,99163
2018-03-31T17:10:40.576Z,99153
2018-03-31T17:13:08.096Z,99160
2018-03-31T17:15:36.506Z,99164
2018-03-31T17:18:04.060Z,99159
2018-03-31T17:20:33.502Z,99162
2018-03-31T17:23:01.788Z,99166
2018-03-31T17:25:29.387Z,99175
2018-03-31T17:27:57.110Z,99173
2018-03-31T17:30:25.422Z,99176
2018-03-31T17:32:54.571Z,99174
2018-03-31T17:35:22.368Z,99176
2018-03-31T17:37:50.436Z,99177
2018-03-31T17:40:18.732Z,99177
2018-03-31T17:42:47.256Z,99185
2018-03-31T17:45:15.772Z,99185
2018-03-31T17:47:43.247Z,99185
2018-03-31T17:50:11.492Z,99191
2018-03-31T17:52:38.957Z,99188
2018-03-31T17:55:06.444Z,99193
2018-03-31T17:57:34.777Z,99196
2018-03-31T18:00:02.520Z,99199
2018-03-31T18:02:30.759Z,99203
2018-03-31T18:04:59.009Z,99203
2018-03-31T18:07:27.312Z,99214
2018-03-31T18:09:54.983Z,99212
2018-03-31T18:12:22.630Z,99211
2018-03-31T18:14:50.839Z,99214
2018-03-31T18:17:18.342Z,99216
2018-03-31T18:19:45.913Z,99211
2018-03-31T18:22:14.212Z,99219
2018-03-31T18:24:41.840Z,99222
2018-03-31T18:27:09.338Z,99221
2018-03-31T18:29:36.781Z,99225
2018-03-31T18:32:04.479Z,99226
2018-03-31T18:34:31.956Z,99236
2018-03-31T18:36:59.511Z,99238
2018-03-31T18:39:27.065Z,99246
2018-03-31T18:41:55.023Z,99248
2018-03-31T18:44:22.587Z,99254
2018-03-31T18:46:50.142Z,99253
2018-03-31T18:49:17.763Z,99255
2018-03-31T18:51:45.983Z,99265
2018-03-31T18:54:14.311Z,99262
2018-03-31T18:56:42.541Z,99263
2018-03-31T18:59:10.163Z,99269
2018-03-31T19:01:37.727Z,99268
2018-03-31T19:04:05.218Z,99269
2018-03-31T19:06:32.749Z,99277
2018-03-31T19:09:00.257Z,99281
2018-03-31T19:11:27.775Z,99282
2018-03-31T19:13:55.293Z,99285
2018-03-31T19:16:29.144Z,99233
2018-03-31T19:18:56.667Z,99295
2018-03-31T19:21:24.858Z,99290
2018-03-31T19:23:52.499Z,99295
2018-03-31T19:26:20.912Z,99300
2018-03-31T19:28:49.348Z,99300
2018-03-31T19:31:17.628Z,99301
2018-03-31T19:33:45.891Z,99311
2018-03-31T19:36:17.265Z,99313
2018-03-31T19:38:44.722Z,99314
2018-03-31T19:41:13.144Z,99315
2018-03-31T19:43:40.733Z,99318
2018-03-31T19:46:09.313Z,99321
2018-03-31T19:48:36.831Z,99321
2018-03-31T19:51:04.353Z,99328
2018-03-31T19:53:32.833Z,99329
2018-03-31T19:56:01.150Z,99333
2018-03-31T19:58:28.669Z,99333
2018-03-31T20:00:56.889Z,99334
2018-03-31T20:03:24.475Z,99340
2018-03-31T20:05:52.036Z,99342
2018-03-31T20:08:19.542Z,99338
2018-03-31T20:10:47.062Z,99340
2018-03-31T20:13:14.749Z,99340
2018-03-31T20:15:42.278Z,99341
2018-03-31T20:18:09.754Z,99340
2018-03-31T20:20:38.244Z,99342
2018-03-31T20:23:05.741Z,99344
2018-03-31T20:25:33.249Z,99342
2018-03-31T20:28:01.486Z,99345
2018-03-31T20:30:29.009Z,99352
2018-03-31T20:32:56.592Z,99349
2018-03-31T20:35:24.348Z,99349
2018-03-31T20:37:51.834Z,99358
2018-03-31T20:40:19.386Z,99377
2018-03-31T20:42:47.037Z,99402
2018-03-31T20:45:14.500Z,99401
2018-03-31T20:47:41.990Z,99407
2018-03-31T20:50:10.224Z,99405
2018-03-31T20:52:37.874Z,99414
2018-03-31T20:55:05.368Z,99421
2018-03-31T20:57:33.500Z,99425
2018-03-31T21:00:01.009Z,99425
2018-03-31T21:02:29.268Z,99428
2018-03-31T21:04:57.130Z,99429
2018-03-31T21:07:24.649Z,99433
2018-03-31T21:09:52.412Z,99433
2018-03-31T21:12:19.936Z,99440
2018-03-31T21:14:48.339Z,99435
2018-03-31T21:17:15.848Z,99443
2018-03-31T21:19:43.469Z,99444
2018-03-31T21:22:11.840Z,99440
2018-03-31T21:24:39.417Z,99439
2018-03-31T21:27:06.915Z,99445
2018-03-31T21:29:34.523Z,99449
2018-03-31T21:32:01.993Z,99440
2018-03-31T21:34:29.484Z,99447
2018-03-31T21:36:57.000Z,99442
2018-03-31T21:39:24.687Z,99449
2018-03-31T21:41:52.212Z,99445
2018-03-31T21:44:19.708Z,99442
2018-03-31T21:46:47.245Z,99447
2018-03-31T21:49:14.874Z,99452
2018-03-31T21:51:42.364Z,99452
2018-03-31T21:54:09.855Z,99448
2018-03-31T21:56:38.132Z,99448
2018-03-31T21:59:06.488Z,99445
2018-03-31T22:01:35.050Z,99450
2018-03-31T22:04:02.705Z,99445
2018-03-31T22:06:30.262Z,99450
2018-03-31T22:08:57.832Z,99453
2018-03-31T22:11:25.346Z,99451
2018-03-31T22:13:59.019Z,99455
2018-03-31T22:16:27.299Z,99456
2018-03-31T22:18:54.795Z,99457
2018-03-31T22:21:23.064Z,99458
2018-03-31T22:23:51.388Z,99461
2018-03-31T22:26:18.938Z,99463
2018-03-31T22:28:46.426Z,99465
2018-03-31T22:31:14.084Z,99466
2018-03-31T22:33:41.611Z,99460
2018-03-31T22:36:09.833Z,99456
2018-03-31T22:38:37.546Z,99455
2018-03-31T22:41:05.139Z,99455
2018-03-31T22:43:32.663Z,99458
2018-03-31T22:46:00.257Z,99455
2018-03-31T22:48:27.838Z,99459
2018-03-31T22:50:55.349Z,99461
2018-03-31T22:53:22.910Z,99461
2018-03-31T22:55:50.611Z,99463
2018-03-31T22:58:18.115Z,99458
2018-03-31T23:00:45.625Z,99458
2018-03-31T23:03:13.278Z,99460
2018-03-31T23:05:40.792Z,99464
2018-03-31T23:08:08.469Z,99461
2018-03-31T23:10:36.039Z,99456
2018-03-31T23:13:03.541Z,99462
2018-03-31T23:15:31.881Z,99465
2018-03-31T23:17:59.390Z,99469
2018-03-31T23:20:27.615Z,99470
2018-03-31T23:22:55.173Z,99473
2018-03-31T23:25:22.833Z,99475
2018-03-31T23:27:50.357Z,99474
2018-03-31T23:30:17.934Z,99475
2018-03-31T23:32:45.436Z,99474
2018-03-31T23:35:13.015Z,99475
2018-03-31T23:37:41.448Z,99475
2018-03-31T23:40:08.973Z,99480
2018-03-31T23:42:36.498Z,99479
2018-03-31T23:45:03.984Z,99486
2018-03-31T23:47:31.450Z,99487
2018-03-31T23:49:58.929Z,99484
2018-03-31T23:52:26.392Z,99493
2018-03-31T23:54:53.894Z,99489
2018-03-31T23:57:22.155Z,99491
2018-03-31T23:59:50.837Z,99490
